BIVO/VPN METAR and TAF weather

Enter ICAO airport designator
Station Type Date Time Source
BIVO METAR 2018/12/20 14:27 UTC NOAA

BIVO 201427Z 00000KT 9999 VCFG BKN004 OVC010 01/00 Q1002


Station Type Date Time Source
BIVO Decoded METAR 2018/12/20 14:27 UTC NOAA

Skjaldthingsstadir, Iceland (BIVO) 65-42N 014-49W 48M
Dec 20, 2018 - 09:27 AM EST / 2018.12.20 1427 UTC
Wind: Calm:0
Visibility: greater than 7 mile(s):0
Sky conditions: overcast
Weather: fog in the vicinity
Temperature: 33 F (1 C)
Dew Point: 32 F (0 C)
Relative Humidity: 93%
Pressure (altimeter): 29.59 in. Hg (1002 hPa)
ob: BIVO 201427Z 00000KT 9999 VCFG BKN004 OVC010 01/00 Q1002
cycle: 14

Station Type Date Time Source
BIVO TAF UTC NOAA

Error!


Example: see airport list